Dades meteomassalio
Diari Summary for Gener 22, 2017 Units:  English    Metric   Both
« Previous Day
Next Day »
Diari Semanal Mensual Anual Personalitzat
  Maxima: Minima: Mijana:
Temperatura: 45.5 °F 40.8 °F 43.3 °F
Rosada: 39.7 °F 35.1 °F 37.4 °F
Humitat: 90 % 68 % 80 %
Velocitat del vent: 17.3 mph 0 mph 3.9 mph
Racha vent: 17.3 mph - -
Vent:- - WNW
Pressio: 30.1 in 30.1 in -
Pluja: 0.09 in    
Historical Graphs
 
 
Tabular Data for Gener 22, 2017
Time Temperature Dew Point Pressure Wind Wind Speed Wind Gust Humidity Rainfall Rate (Hourly) solar Conditions
00:03 43.7 °F 38.3 °F 30.1 in Calm     81 % 0 in 0.0 W/m2 CLR
00:08 43.7 °F 38.3 °F 30.1 in Calm     81 % 0 in 0.0 W/m2 CLR
00:13 43.5 °F 38.1 °F 30.1 in Calm     81 % 0 in 0.0 W/m2 CLR
00:18 43.2 °F 38.1 °F 30.1 in Calm     82 % 0 in 0.0 W/m2 CLR
00:23 42.8 °F 38.3 °F 30.1 in Calm     84 % 0 in 0.0 W/m2 CLR
00:28 42.4 °F 37.9 °F 30.1 in Calm     84 % 0 in 0.0 W/m2 CLR
00:33 42.3 °F 38.1 °F 30.1 in Calm     85 % 0 in 0.0 W/m2 CLR
00:38 42.1 °F 38.1 °F 30.1 in Calm     86 % 0 in 0.0 W/m2 CLR
00:43 42.1 °F 38.1 °F 30.1 in Calm     86 % 0 in 0.0 W/m2 CLR
00:48 42.1 °F 38.1 °F 30.1 in Calm     86 % 0 in 0.0 W/m2 CLR
00:53 42.4 °F 38.7 °F 30.1 in Calm     86 % 0 in 0.0 W/m2 CLR
00:58 43 °F 38.7 °F 30.1 in West 2.3 mph 2.3 mph 85 % 0 in 0.0 W/m2 CLR
01:03 43 °F 38.5 °F 30.1 in Calm     84 % 0 in 0.0 W/m2 CLR
01:08 43 °F 38.7 °F 30.1 in Calm     85 % 0 in 0.0 W/m2 CLR
01:13 43 °F 38.5 °F 30.1 in Calm     84 % 0 in 0.0 W/m2 CLR
01:18 43 °F 38.5 °F 30.1 in Calm     84 % 0 in 0.0 W/m2 CLR
01:23 42.8 °F 38.7 °F 30.1 in Calm     85 % 0 in 0.0 W/m2 CLR
01:28 43 °F 38.7 °F 30.1 in WNW 8.1 mph 8.1 mph 85 % 0 in 0.0 W/m2 CLR
01:33 43.7 °F 38.8 °F 30.1 in WNW 11 mph 11 mph 83 % 0 in 0.0 W/m2 CLR
01:38 44.4 °F 38.7 °F 30.1 in WNW 10.4 mph 10.4 mph 80 % 0 in 0.0 W/m2 CLR
01:43 45 °F 38.8 °F 30.1 in West 13 mph 13 mph 79 % 0 in 0.0 W/m2 CLR
01:48 45 °F 38.7 °F 30.1 in West 9.2 mph 9.2 mph 78 % 0 in 0.0 W/m2 CLR
01:53 44.8 °F 38.5 °F 30.1 in West 10.4 mph 10.4 mph 78 % 0 in 0.0 W/m2 CLR
01:58 44.8 °F 38.3 °F 30.1 in West 11.5 mph 11.5 mph 78 % 0 in 0.0 W/m2 CLR
02:03 44.6 °F 38.1 °F 30.1 in West 10.4 mph 10.4 mph 78 % 0 in 0.0 W/m2 CLR
02:08 44.6 °F 37.8 °F 30.1 in West 5.8 mph 5.8 mph 77 % 0 in 0.0 W/m2 CLR
02:13 44.4 °F 37.9 °F 30.1 in WSW 4 mph 4 mph 78 % 0 in 0.0 W/m2 CLR
02:18 44.1 °F 37.9 °F 30.1 in WSW 5 mph 5 mph 79 % 0 in 0.0 W/m2 CLR
02:23 43.9 °F 37.8 °F 30.1 in WSW 4.6 mph 4.6 mph 79 % 0 in 0.0 W/m2 CLR
02:28 44.1 °F 37.9 °F 30.1 in West 4.6 mph 4.6 mph 79 % 0 in 0.0 W/m2 CLR
02:33 44.1 °F 37.8 °F 30.1 in West 10.4 mph 10.4 mph 78 % 0 in 0.0 W/m2 CLR
02:38 44.2 °F 37.8 °F 30.1 in West 9.2 mph 9.2 mph 78 % 0 in 0.0 W/m2 CLR
02:43 44.1 °F 37.8 °F 30.1 in Calm     78 % 0 in 0.0 W/m2 CLR
02:48 43.9 °F 37.8 °F 30.1 in Calm     79 % 0 in 0.0 W/m2 CLR
02:53 43.5 °F 37.8 °F 30.1 in SW 4.6 mph 4.6 mph 80 % 0 in 0.0 W/m2 CLR
02:58 43.3 °F 37.6 °F 30.1 in West 5.8 mph 5.8 mph 80 % 0 in 0.0 W/m2 CLR
03:03 43.3 °F 37.2 °F 30.1 in Calm     79 % 0 in 0.0 W/m2 CLR
03:08 43.3 °F 37.6 °F 30.1 in Calm     80 % 0 in 0.0 W/m2 CLR
03:13 43.3 °F 37.6 °F 30.1 in Calm     80 % 0 in 0.0 W/m2 CLR
03:18 43.2 °F 37.4 °F 30.1 in Calm     80 % 0 in 0.0 W/m2 CLR
03:23 43.2 °F 37.4 °F 30.1 in SW 1 mph 1 mph 80 % 0 in 0.0 W/m2 CLR
03:28 43.2 °F 37.2 °F 30.1 in SW 5 mph 5 mph 80 % 0 in 0.0 W/m2 CLR
03:33 43 °F 37.2 °F 30.1 in Calm     80 % 0 in 0.0 W/m2 CLR
03:38 43 °F 36.9 °F 30.1 in Calm     79 % 0 in 0.0 W/m2 CLR
03:43 43 °F 36.9 °F 30.1 in WSW 8 mph 8 mph 79 % 0 in 0.0 W/m2 CLR
03:48 43 °F 36.7 °F 30.1 in WSW 9.2 mph 9.2 mph 78 % 0 in 0.0 W/m2 CLR
03:53 43.2 °F 36.1 °F 30.1 in WSW 12.7 mph 12.7 mph 76 % 0 in 0.0 W/m2 CLR
03:58 43.3 °F 36.3 °F 30.1 in WSW 12.7 mph 12.7 mph 76 % 0 in 0.0 W/m2 CLR
04:03 43.3 °F 36 °F 30.1 in WSW 11.5 mph 11.5 mph 75 % 0 in 0.0 W/m2 CLR
04:08 43.7 °F 35.6 °F 30.1 in West 17.3 mph 17.3 mph 73 % 0 in 0.0 W/m2 CLR
04:13 43.9 °F 36 °F 30.1 in West 11.5 mph 11.5 mph 74 % 0 in 0.0 W/m2 CLR
04:18 43.5 °F 36.1 °F 30.1 in West 16.1 mph 16.1 mph 75 % 0.01 in 0.0 W/m2 RA
04:23 43.7 °F 35.6 °F 30.1 in WSW 17.3 mph 17.3 mph 73 % 0.01 in 0.0 W/m2 CLR
04:28 43.9 °F 35.4 °F 30.1 in West 10.4 mph 10.4 mph 72 % 0.01 in 0.0 W/m2 CLR
04:33 44.1 °F 35.6 °F 30.1 in West 10.4 mph 10.4 mph 72 % 0.01 in 0.0 W/m2 CLR
04:38 43.9 °F 35.4 °F 30.1 in Calm     72 % 0.01 in 0.0 W/m2 CLR
04:43 43.9 °F 35.8 °F 30.1 in Calm     73 % 0.01 in 0.0 W/m2 CLR
04:48 43.5 °F 36.1 °F 30.1 in Calm     75 % 0.01 in 0.0 W/m2 CLR
04:53 43.3 °F 36 °F 30.1 in Calm     75 % 0.01 in 0.0 W/m2 CLR
04:58 43.2 °F 35.8 °F 30.1 in NNW 4.6 mph 4.6 mph 75 % 0.01 in 0.0 W/m2 CLR
05:03 43 °F 36 °F 30.1 in WSW 4.6 mph 4.6 mph 76 % 0.01 in 0.0 W/m2 CLR
05:08 43.2 °F 36 °F 30.1 in WSW 6.9 mph 6.9 mph 76 % 0.01 in 0.0 W/m2 CLR
05:13 43 °F 36 °F 30.1 in Calm     76 % 0.01 in 0.0 W/m2 CLR
05:18 42.8 °F 36.3 °F 30.1 in Calm     78 % 0 in 0.0 W/m2 CLR
05:23 42.6 °F 36.1 °F 30.1 in Calm     78 % 0 in 0.0 W/m2 CLR
05:28 42.4 °F 36.3 °F 30.1 in Calm     79 % 0 in 0.0 W/m2 CLR
05:33 42.3 °F 36.7 °F 30.1 in Calm     80 % 0.01 in 0.0 W/m2 RA
05:38 42.3 °F 37 °F 30.1 in Calm     82 % 0.01 in 0.0 W/m2
05:43 42.1 °F 36.9 °F 30.1 in Calm     82 % 0.01 in 0.0 W/m2 CLR
05:48 41.9 °F 37 °F 30.1 in Calm     83 % 0.01 in 0.0 W/m2 CLR
05:53 42.1 °F 37.6 °F 30.1 in Calm     84 % 0.01 in 0.0 W/m2 CLR
05:58 41.7 °F 37.2 °F 30.1 in Calm     84 % 0.01 in 0.0 W/m2 CLR
06:03 41.5 °F 37.2 °F 30.1 in Calm     85 % 0.01 in 0.0 W/m2 CLR
06:08 41.5 °F 37.6 °F 30.1 in Calm     86 % 0.01 in 0.0 W/m2 CLR
06:13 41.4 °F 37.6 °F 30.1 in Calm     86 % 0.01 in 0.0 W/m2 CLR
06:18 41.4 °F 37.8 °F 30.1 in Calm     87 % 0.01 in 0.0 W/m2 CLR
06:23 41.4 °F 37.8 °F 30.1 in Calm     87 % 0.01 in 0.0 W/m2 CLR
06:28 41.4 °F 37.8 °F 30.1 in Calm     87 % 0.01 in 0.0 W/m2 CLR
06:33 41.4 °F 37.8 °F 30.1 in Calm     87 % 0 in 0.0 W/m2 CLR
06:38 41.4 °F 37.8 °F 30.1 in Calm     87 % 0 in 0.0 W/m2 CLR
06:43 41.4 °F 37.6 °F 30.1 in Calm     86 % 0 in 0.0 W/m2 CLR
06:49 41.4 °F 37.6 °F 30.1 in Calm     86 % 0 in 0.0 W/m2 CLR
06:54 41.4 °F 37 °F 30.1 in Calm     85 % 0 in 0.0 W/m2 CLR
06:59 41.4 °F 37 °F 30.1 in SW 2.3 mph   85 % 0 in 0.0 W/m2 CLR
07:04 41.4 °F 36.9 °F 30.1 in Calm     84 % 0 in 0.0 W/m2 CLR
07:09 41.2 °F 36.3 °F 30.1 in WSW 6.9 mph 6.9 mph 83 % 0 in 0.0 W/m2 CLR
07:14 41.4 °F 36.3 °F 30.1 in West 8 mph 8 mph 82 % 0 in 0.0 W/m2 CLR
07:19 41.4 °F 36.5 °F 30.1 in West 10.4 mph 10.4 mph 83 % 0 in 0.0 W/m2 CLR
07:24 41.2 °F 36.1 °F 30.1 in WSW 8.1 mph 8.1 mph 82 % 0 in 0.0 W/m2 CLR
07:29 41.2 °F 36.3 °F 30.1 in WSW 5.8 mph 5.8 mph 83 % 0 in 0.0 W/m2 CLR
07:34 41.2 °F 36.3 °F 30.1 in SW 6.9 mph 6.9 mph 83 % 0 in 0.0 W/m2 CLR
07:39 41.2 °F 35.8 °F 30.1 in WSW 9.2 mph 9.2 mph 81 % 0 in 0.0 W/m2 CLR
07:44 41.4 °F 36 °F 30.1 in Calm     81 % 0 in 0.0 W/m2 CLR
07:49 41.4 °F 36 °F 30.1 in Calm     81 % 0 in 0.0 W/m2 CLR
07:54 41.2 °F 36.1 °F 30.1 in Calm     82 % 0 in 0.0 W/m2 CLR
07:59 41 °F 36.1 °F 30.1 in Calm     83 % 0 in 0.0 W/m2 CLR
08:04 40.8 °F 36 °F 30.1 in Calm     83 % 0 in 0.0 W/m2 CLR
08:09 40.8 °F 35.8 °F 30.1 in Calm     82 % 0 in 0.0 W/m2 CLR
08:14 41 °F 35.6 °F 30.1 in Calm     81 % 0 in 0.0 W/m2 CLR
08:19 41 °F 35.6 °F 30.1 in Calm     81 % 0 in 0.0 W/m2 OVC
08:24 41 °F 35.2 °F 30.1 in Calm     80 % 0 in 0.0 W/m2 OVC
08:29 41.2 °F 35.4 °F 30.1 in Calm     80 % 0 in 0.0 W/m2 OVC
08:34 41.2 °F 35.4 °F 30.1 in Calm     80 % 0 in 0.0 W/m2 OVC
08:39 41.2 °F 35.4 °F 30.1 in Calm     80 % 0 in 5.0 W/m2 OVC
08:44 41.2 °F 35.2 °F 30.1 in Calm     79 % 0 in 14.0 W/m2 BKN
08:49 41.4 °F 35.4 °F 30.1 in Calm     79 % 0 in 25.0 W/m2 BKN
08:54 41.5 °F 35.4 °F 30.1 in Calm     79 % 0 in 40.0 W/m2 BKN
08:59 41.5 °F 35.2 °F 30.1 in West 1.2 mph   78 % 0 in 60.0 W/m2 BKN
09:04 41.9 °F 35.2 °F 30.1 in Calm     77 % 0 in 69.0 W/m2 BKN
09:09 42.1 °F 35.2 °F 30.1 in Calm     77 % 0 in 72.0 W/m2 BKN
09:14 42.3 °F 35.2 °F 30.1 in Calm     76 % 0 in 76.0 W/m2 BKN
09:19 42.3 °F 35.2 °F 30.1 in Calm     76 % 0 in 77.0 W/m2 BKN
09:24 42.3 °F 35.6 °F 30.1 in WNW 4 mph 4 mph 77 % 0 in 81.0 W/m2 BKN
09:29 42.4 °F 35.4 °F 30.1 in WNW 4.6 mph 4.6 mph 76 % 0 in 69.0 W/m2 BKN
09:34 42.4 °F 35.4 °F 30.1 in Calm     76 % 0 in 42.0 W/m2 BKN
09:39 42.6 °F 35.2 °F 30.1 in Calm     75 % 0 in 42.0 W/m2 BKN
09:44 42.6 °F 35.2 °F 30.1 in Calm     75 % 0 in 53.0 W/m2 BKN
09:49 42.6 °F 35.2 °F 30.1 in Calm     75 % 0 in 53.0 W/m2 BKN
09:54 42.8 °F 35.4 °F 30.1 in Calm     75 % 0 in 49.0 W/m2 BKN
09:59 42.8 °F 35.4 °F 30.1 in Calm     75 % 0 in 76.0 W/m2 BKN
10:04 42.8 °F 35.4 °F 30.1 in Calm     75 % 0 in 70.0 W/m2 BKN
10:09 43 °F 35.4 °F 30.1 in Calm     75 % 0 in 58.0 W/m2 BKN
10:14 43 °F 35.6 °F 30.1 in Calm     75 % 0 in 93.0 W/m2 BKN
10:19 43 °F 35.6 °F 30.1 in Calm     75 % 0 in 91.0 W/m2 BKN
10:24 43.2 °F 35.8 °F 30.1 in Calm     75 % 0 in 111.0 W/m2 BKN
10:25 43.2 °F 35.8 °F 30.1 in Calm     75 % 0 in 114.0 W/m2 BKN
10:30 43.3 °F 36 °F 30.1 in Calm     75 % 0 in 165.0 W/m2 BKN
10:35 43.7 °F 35.6 °F 30.1 in West 3.5 mph 3.5 mph 73 % 0 in 167.0 W/m2 BKN
10:40 44.1 °F 35.6 °F 30.1 in West 9.2 mph 9.2 mph 72 % 0 in 158.0 W/m2 BKN
10:45 44.2 °F 35.4 °F 30.1 in West 11 mph 11 mph 71 % 0 in 111.0 W/m2 BKN
10:50 44.2 °F 35.4 °F 30.1 in WNW 11.5 mph 11.5 mph 71 % 0 in 137.0 W/m2 BKN
10:55 44.2 °F 35.4 °F 30.1 in WNW 10.4 mph 10.4 mph 71 % 0 in 142.0 W/m2 BKN
11:00 44.2 °F 35.1 °F 30.1 in WNW 12.7 mph 12.7 mph 70 % 0 in 195.0 W/m2 BKN
11:05 44.2 °F 35.4 °F 30.1 in WNW 10.4 mph 10.4 mph 71 % 0 in 146.0 W/m2 BKN
11:10 44.4 °F 35.6 °F 30.1 in WNW 8.1 mph 8.1 mph 71 % 0 in 139.0 W/m2 BKN
11:15 44.4 °F 35.6 °F 30.1 in WNW 13.8 mph 13.8 mph 71 % 0 in 221.0 W/m2 BKN
11:20 44.4 °F 35.6 °F 30.1 in WNW 10.4 mph 10.4 mph 71 % 0 in 202.0 W/m2 BKN
11:25 44.6 °F 35.8 °F 30.1 in WNW 10.4 mph 10.4 mph 71 % 0 in 151.0 W/m2 BKN
11:30 44.8 °F 36.1 °F 30.1 in NW 6.9 mph 6.9 mph 72 % 0 in 190.0 W/m2 BKN
11:35 44.8 °F 35.4 °F 30.1 in WNW 13.8 mph 13.8 mph 70 % 0 in 207.0 W/m2 BKN
11:40 44.8 °F 35.4 °F 30.1 in WNW 10.4 mph 10.4 mph 70 % 0 in 195.0 W/m2 BKN
11:45 44.8 °F 35.6 °F 30.1 in WNW 4.6 mph 4.6 mph 70 % 0 in 211.0 W/m2 BKN
11:50 45 °F 35.8 °F 30.1 in WNW 9.2 mph 9.2 mph 70 % 0 in 383.0 W/m2 BKN
11:55 45.1 °F 36 °F 30.1 in NW 11.5 mph 11.5 mph 70 % 0 in 209.0 W/m2 SCT
12:00 45.1 °F 36 °F 30.1 in NW 10.4 mph 10.4 mph 70 % 0 in 178.0 W/m2 BKN
12:05 45.1 °F 36 °F 30.1 in NW 5.8 mph 5.8 mph 70 % 0 in 151.0 W/m2 BKN
12:10 45.1 °F 36 °F 30.1 in NW 9.2 mph 9.2 mph 70 % 0 in 149.0 W/m2 BKN
12:15 45 °F 35.1 °F 30.1 in NNW 9.2 mph 9.2 mph 68 % 0 in 135.0 W/m2 BKN
12:20 45 °F 35.4 °F 30.1 in NNW 6.9 mph 6.9 mph 69 % 0 in 134.0 W/m2 BKN
12:25 44.8 °F 36 °F 30.1 in North 6.9 mph 6.9 mph 71 % 0 in 148.0 W/m2 BKN
12:30 44.4 °F 36 °F 30.1 in North 7 mph 7 mph 72 % 0 in 144.0 W/m2 BKN
12:35 44.2 °F 35.8 °F 30.1 in North 6.9 mph 6.9 mph 72 % 0 in 137.0 W/m2 BKN
12:40 44.2 °F 36.1 °F 30.1 in North 4.6 mph 4.6 mph 73 % 0 in 134.0 W/m2 BKN
12:45 44.2 °F 36.1 °F 30.1 in North 5.8 mph 5.8 mph 73 % 0 in 120.0 W/m2 BKN
12:50 44.2 °F 36.9 °F 30.1 in North 3 mph 3 mph 75 % 0 in 130.0 W/m2 BKN
12:55 44.2 °F 36.9 °F 30.1 in NNW 6 mph 6 mph 75 % 0 in 111.0 W/m2 BKN
13:00 44.1 °F 36.7 °F 30.1 in NW 5.8 mph 5.8 mph 75 % 0 in 111.0 W/m2 BKN
13:05 43.9 °F 36.9 °F 30.1 in NW 3.5 mph   76 % 0 in 120.0 W/m2 BKN
13:10 43.9 °F 36.5 °F 30.1 in Calm     75 % 0 in 146.0 W/m2 BKN
13:16 44.1 °F 37.2 °F 30.1 in NNW 8 mph 8 mph 77 % 0 in 193.0 W/m2 BKN
13:21 44.2 °F 36.9 °F 30.1 in NW 6.9 mph 6.9 mph 75 % 0 in 156.0 W/m2 BKN
13:26 44.2 °F 37.2 °F 30.1 in NW 5.8 mph 5.8 mph 76 % 0 in 109.0 W/m2 BKN
13:31 44.2 °F 36.3 °F 30.1 in WNW 6 mph 6 mph 74 % 0 in 111.0 W/m2 BKN
13:36 44.2 °F 36.3 °F 30.1 in NW 8 mph 8 mph 74 % 0 in 121.0 W/m2 BKN
13:41 44.1 °F 36 °F 30.1 in NW 8.1 mph 8.1 mph 73 % 0 in 123.0 W/m2 BKN
13:46 44.1 °F 36 °F 30.1 in NW 10.4 mph 10.4 mph 73 % 0 in 123.0 W/m2 BKN
13:51 44.1 °F 36 °F 30.1 in NW 11.5 mph 11.5 mph 73 % 0 in 114.0 W/m2 BKN
13:56 44.1 °F 36.3 °F 30.1 in NW 12.7 mph 12.7 mph 74 % 0 in 139.0 W/m2 BKN
14:01 44.1 °F 36.3 °F 30.1 in NW 11 mph 11 mph 74 % 0 in 114.0 W/m2 BKN
14:06 44.1 °F 36.3 °F 30.1 in NW 11.5 mph 11.5 mph 74 % 0 in 100.0 W/m2 BKN
14:11 44.1 °F 36.3 °F 30.1 in NW 11.5 mph 11.5 mph 74 % 0 in 76.0 W/m2 BKN
14:16 44.1 °F 36.3 °F 30.1 in NW 9.2 mph 9.2 mph 74 % 0 in 81.0 W/m2 BKN
14:21 44.1 °F 36.3 °F 30.1 in NW 9.2 mph 9.2 mph 74 % 0 in 67.0 W/m2 BKN
14:26 44.2 °F 36.9 °F 30.1 in WNW 7 mph 7 mph 75 % 0 in 74.0 W/m2 BKN
14:31 44.2 °F 36.3 °F 30.1 in WNW 10.4 mph 10.4 mph 74 % 0 in 76.0 W/m2 BKN
14:36 44.2 °F 36.9 °F 30.1 in WNW 5.8 mph 5.8 mph 75 % 0 in 88.0 W/m2 BKN
14:41 44.4 °F 37 °F 30.1 in Calm     75 % 0 in 76.0 W/m2 BKN
14:46 44.4 °F 37 °F 30.1 in Calm     75 % 0 in 70.0 W/m2 BKN
14:51 44.6 °F 37.2 °F 30.1 in West 5.8 mph 5.8 mph 75 % 0 in 90.0 W/m2 BKN
14:56 44.6 °F 37.2 °F 30.1 in WNW 8.1 mph 8.1 mph 75 % 0 in 90.0 W/m2 BKN
15:01 44.8 °F 37.2 °F 30.1 in WNW 11 mph 11 mph 75 % 0 in 90.0 W/m2 BKN
15:06 44.8 °F 37.4 °F 30.1 in WNW 9.2 mph 9.2 mph 75 % 0 in 102.0 W/m2 BKN
15:11 44.8 °F 37.4 °F 30.1 in WNW 4.6 mph 4.6 mph 75 % 0 in 98.0 W/m2 BKN
15:16 45 °F 37.6 °F 30.1 in Calm     75 % 0 in 81.0 W/m2 BKN
15:21 45.1 °F 37.6 °F 30.1 in WNW 10.4 mph 10.4 mph 75 % 0 in 65.0 W/m2 BKN
15:26 45.1 °F 37.8 °F 30.1 in WNW 10.4 mph 10.4 mph 75 % 0 in 53.0 W/m2 BKN
15:31 45.1 °F 37.4 °F 30.1 in Calm     74 % 0 in 44.0 W/m2 BKN
15:36 45.3 °F 37.8 °F 30.1 in Calm     75 % 0 in 51.0 W/m2 BKN
15:41 45.3 °F 37.6 °F 30.1 in Calm     74 % 0 in 47.0 W/m2 BKN
15:46 45.3 °F 37.6 °F 30.1 in Calm     74 % 0 in 40.0 W/m2 BKN
15:51 45.5 °F 37.8 °F 30.1 in Calm     74 % 0 in 39.0 W/m2 BKN
15:56 45.5 °F 37.9 °F 30.1 in Calm     75 % 0 in 37.0 W/m2 BKN
16:01 45.5 °F 37.9 °F 30.1 in Calm     75 % 0 in 40.0 W/m2 BKN
16:06 45.5 °F 37.9 °F 30.1 in NW 5.8 mph 5.8 mph 75 % 0 in 35.0 W/m2 BKN
16:11 45.5 °F 37.9 °F 30.1 in Calm     75 % 0 in 33.0 W/m2 BKN
16:16 45.5 °F 37.8 °F 30.1 in Calm     74 % 0 in 32.0 W/m2 BKN
16:21 45.5 °F 37.8 °F 30.1 in Calm     74 % 0 in 33.0 W/m2 BKN
16:26 45.5 °F 38.5 °F 30.1 in Calm     76 % 0 in 28.0 W/m2 BKN
16:31 45.3 °F 38.8 °F 30.1 in Calm     78 % 0 in 30.0 W/m2 BKN
16:36 45.3 °F 38.8 °F 30.1 in Calm     78 % 0 in 26.0 W/m2 SCT
16:41 45.1 °F 38.5 °F 30.1 in Calm     77 % 0 in 19.0 W/m2 SCT
16:46 45.1 °F 39 °F 30.1 in Calm     79 % 0 in 19.0 W/m2 FEW
16:51 45.1 °F 39.4 °F 30.1 in Calm     80 % 0.01 in 19.0 W/m2 RA
16:56 44.8 °F 39 °F 30.1 in Calm     80 % 0.01 in 18.0 W/m2 BKN
17:01 44.8 °F 38.8 °F 30.1 in Calm     80 % 0.01 in 19.0 W/m2 CLR
17:06 44.6 °F 39 °F 30.1 in Calm     81 % 0.01 in 18.0 W/m2 OVC
17:11 44.6 °F 38.8 °F 30.1 in Calm     80 % 0.01 in 14.0 W/m2 OVC
17:16 44.6 °F 39.4 °F 30.1 in Calm     82 % 0.01 in 14.0 W/m2 OVC
17:21 44.4 °F 39.6 °F 30.1 in Calm     83 % 0.01 in 11.0 W/m2 OVC
17:26 44.2 °F 39.2 °F 30.1 in Calm     82 % 0.01 in 11.0 W/m2 OVC
17:31 44.2 °F 39.6 °F 30.1 in Calm     83 % 0.01 in 11.0 W/m2 OVC
17:36 44.1 °F 39.6 °F 30.1 in Calm     84 % 0.01 in 9.0 W/m2 OVC
17:41 44.1 °F 39.7 °F 30.1 in Calm     85 % 0.01 in 5.0 W/m2 OVC
17:46 43.9 °F 39.7 °F 30.1 in Calm     85 % 0.01 in 0.0 W/m2 OVC
17:51 43.9 °F 39.7 °F 30.1 in Calm     85 % 0 in 0.0 W/m2 OVC
17:56 44.1 °F 39.6 °F 30.1 in Calm     84 % 0 in 0.0 W/m2 OVC
18:01 44.2 °F 39.7 °F 30.1 in Calm     84 % 0 in 0.0 W/m2 OVC
18:06 44.2 °F 39.7 °F 30.1 in Calm     84 % 0 in 0.0 W/m2 CLR
18:11 44.2 °F 39.7 °F 30.1 in Calm     84 % 0 in 0.0 W/m2 CLR
18:16 44.2 °F 39.7 °F 30.1 in Calm     84 % 0 in 0.0 W/m2 CLR
18:21 44.2 °F 39.4 °F 30.1 in Calm     83 % 0 in 0.0 W/m2 CLR
18:26 44.2 °F 39.4 °F 30.1 in Calm     83 % 0 in 0.0 W/m2 CLR
18:31 44.2 °F 39 °F 30.1 in Calm     82 % 0 in 0.0 W/m2 CLR
18:36 44.2 °F 39.7 °F 30.1 in Calm     84 % 0 in 0.0 W/m2 CLR
18:41 43.9 °F 39 °F 30.1 in Calm     83 % 0.01 in 0.0 W/m2 RA
18:46 43.9 °F 39.4 °F 30.1 in Calm     84 % 0.01 in 0.0 W/m2 CLR
18:51 43.7 °F 39.2 °F 30.1 in Calm     84 % 0.01 in 0.0 W/m2 CLR
18:56 43.5 °F 39 °F 30.1 in Calm     84 % 0.01 in 0.0 W/m2 CLR
19:01 43.5 °F 39.4 °F 30.1 in Calm     85 % 0.01 in 0.0 W/m2 CLR
19:06 43.3 °F 39.2 °F 30.1 in Calm     85 % 0.01 in 0.0 W/m2 CLR
19:11 43.2 °F 39.6 °F 30.1 in Calm     87 % 0.01 in 0.0 W/m2 CLR
19:16 43 °F 39.4 °F 30.1 in Calm     87 % 0.01 in 0.0 W/m2 CLR
19:21 43 °F 39.4 °F 30.1 in Calm     87 % 0.01 in 0.0 W/m2 CLR
19:26 43.2 °F 39.2 °F 30.1 in Calm     86 % 0.02 in 0.0 W/m2 RA
19:31 43.2 °F 39.2 °F 30.1 in Calm     86 % 0.02 in 0.0 W/m2 CLR
19:36 43.2 °F 39.4 °F 30.1 in Calm     86 % 0.02 in 0.0 W/m2 CLR
19:41 43 °F 39.4 °F 30.1 in Calm     87 % 0.01 in 0.0 W/m2 CLR
19:46 42.6 °F 39.4 °F 30.1 in Calm     88 % 0.02 in 0.0 W/m2 RA
19:51 42.4 °F 39.4 °F 30.1 in Calm     89 % 0.02 in 0.0 W/m2 CLR
19:56 42.3 °F 39.4 °F 30.1 in Calm     89 % 0.02 in 0.0 W/m2 CLR
20:01 42.3 °F 39.6 °F 30.1 in Calm     90 % 0.02 in 0.0 W/m2 CLR
20:06 42.1 °F 39.4 °F 30.1 in Calm     90 % 0.02 in 0.0 W/m2 CLR
20:12 42.1 °F 39.4 °F 30.1 in Calm     90 % 0.02 in 0.0 W/m2 CLR
20:17 42.1 °F 39.4 °F 30.1 in Calm     90 % 0.02 in 0.0 W/m2 CLR
20:22 42.3 °F 39.4 °F 30.1 in Calm     89 % 0.02 in 0.0 W/m2 CLR
20:27 42.4 °F 39.6 °F 30.1 in Calm     89 % 0.01 in 0.0 W/m2 CLR
20:32 42.4 °F 39.4 °F 30.1 in Calm     89 % 0.01 in 0.0 W/m2 CLR
20:37 42.3 °F 39.6 °F 30.1 in Calm     90 % 0.01 in 0.0 W/m2 CLR
20:42 42.3 °F 39.6 °F 30.1 in Calm     90 % 0.01 in 0.0 W/m2 CLR
20:47 42.4 °F 39.4 °F 30.1 in Calm     89 % 0 in 0.0 W/m2 CLR
20:52 42.4 °F 39.4 °F 30.1 in Calm     89 % 0 in 0.0 W/m2 CLR
20:57 42.4 °F 39.4 °F 30.1 in Calm     89 % 0 in 0.0 W/m2 CLR
21:02 42.4 °F 39.4 °F 30.1 in Calm     89 % 0 in 0.0 W/m2 CLR
21:07 42.3 °F 39.4 °F 30.1 in Calm     89 % 0.01 in 0.0 W/m2 RA
21:12 42.3 °F 39.4 °F 30.1 in Calm     89 % 0.02 in 0.0 W/m2 RA
21:17 42.3 °F 39.4 °F 30.1 in Calm     89 % 0.02 in 0.0 W/m2
21:22 42.3 °F 39.4 °F 30.1 in NW 7 mph 7 mph 89 % 0.02 in 0.0 W/m2 RA
21:27 42.4 °F 39 °F 30.1 in WNW 6.9 mph 6.9 mph 88 % 0.02 in 0.0 W/m2
21:32 42.4 °F 39 °F 30.1 in WNW 5.8 mph 5.8 mph 88 % 0.02 in 0.0 W/m2 CLR
21:37 42.4 °F 38.8 °F 30.1 in WNW 6 mph 6 mph 87 % 0.02 in 0.0 W/m2 CLR
21:42 42.4 °F 38.8 °F 30.1 in WNW 11.5 mph 11.5 mph 87 % 0.02 in 0.0 W/m2 CLR
21:47 42.4 °F 38.7 °F 30.1 in WNW 11.5 mph 11.5 mph 86 % 0.02 in 0.0 W/m2 CLR
21:52 42.6 °F 38.7 °F 30.1 in WNW 6.9 mph 6.9 mph 86 % 0.02 in 0.0 W/m2 CLR
21:57 42.6 °F 38.7 °F 30.1 in WNW 6.9 mph 6.9 mph 86 % 0.02 in 0.0 W/m2 CLR
22:02 42.6 °F 38.8 °F 30.1 in WNW 5.8 mph 5.8 mph 86 % 0.02 in 0.0 W/m2 CLR
22:07 42.6 °F 38.7 °F 30.1 in WNW 4 mph 4 mph 86 % 0.02 in 0.0 W/m2 CLR
22:12 42.6 °F 38.8 °F 30.1 in Calm     86 % 0.02 in 0.0 W/m2 RA
22:17 42.6 °F 38.7 °F 30.1 in West 6.9 mph 6.9 mph 86 % 0.02 in 0.0 W/m2 CLR
22:22 42.6 °F 38.7 °F 30.1 in WNW 6 mph 6 mph 86 % 0.01 in 0.0 W/m2 CLR
22:27 42.6 °F 38.8 °F 30.1 in WNW 5.8 mph 5.8 mph 86 % 0.01 in 0.0 W/m2 CLR
22:32 42.6 °F 38.8 °F 30.1 in WNW 4.6 mph 4.6 mph 86 % 0.01 in 0.0 W/m2 CLR
22:37 42.4 °F 38.7 °F 30.1 in WNW 8.1 mph 8.1 mph 86 % 0.01 in 0.0 W/m2 CLR
22:42 42.6 °F 38.7 °F 30.1 in WNW 6.9 mph 6.9 mph 86 % 0.02 in 0.0 W/m2 RA
22:47 42.4 °F 38.8 °F 30.1 in WNW 6 mph 6 mph 87 % 0.02 in 0.0 W/m2 CLR
22:52 42.3 °F 38.7 °F 30.1 in WNW 8.1 mph 8.1 mph 87 % 0.02 in 0.0 W/m2 CLR
22:57 42.3 °F 38.7 °F 30.1 in WNW 9.2 mph 9.2 mph 87 % 0.02 in 0.0 W/m2 CLR
23:02 42.3 °F 38.7 °F 30.1 in WNW 9 mph 9 mph 87 % 0.02 in 0.0 W/m2 CLR
23:07 42.4 °F 38.5 °F 30.1 in WNW 10.4 mph 10.4 mph 86 % 0.02 in 0.0 W/m2 CLR
23:12 42.4 °F 38.5 °F 30.1 in WNW 9.2 mph 9.2 mph 86 % 0.02 in 0.0 W/m2 CLR
23:17 42.4 °F 38.8 °F 30.1 in WNW 9.2 mph 9.2 mph 87 % 0.02 in 0.0 W/m2 CLR
23:22 42.3 °F 38.5 °F 30.1 in WNW 8.1 mph 8.1 mph 86 % 0.02 in 0.0 W/m2 CLR
23:27 42.4 °F 38.7 °F 30.1 in WNW 12 mph 12 mph 86 % 0.02 in 0.0 W/m2 CLR
23:32 42.4 °F 38.3 °F 30.1 in WNW 11.5 mph 11.5 mph 85 % 0.02 in 0.0 W/m2 CLR
23:37 42.6 °F 38.5 °F 30.1 in WNW 12.7 mph 12.7 mph 85 % 0.02 in 0.0 W/m2 CLR
23:42 42.6 °F 38.5 °F 30.1 in WNW 11.5 mph 11.5 mph 85 % 0 in 0.0 W/m2 CLR
23:47 42.4 °F 38.3 °F 30.1 in WNW 15 mph 15 mph 85 % 0 in 0.0 W/m2 CLR
23:52 42.4 °F 38.3 °F 30.1 in WNW 15 mph 15 mph 85 % 0 in 0.0 W/m2 CLR
23:57 42.4 °F 38.3 °F 30.1 in WNW 13.8 mph 13.8 mph 85 % 0 in 0.0 W/m2 CLR
Lo Temps de Massalio
Compliments of Weather Underground - 1.25 mb